Time;durP1;ratioP1;P1;durP2;ratioP2;P2;SDS_P1;SDS_P2;PMS_P1;PMS_P2;Temp;Humidity;BMP_temperature;BMP_pressure;BME280_temperature;BME280_humidity;BME280_pressure;Samples;Min_cycle;Max_cycle;Signal;HPM_P1;HPM_P2
2022/09/18 00:02:21;;;;;;;8.15;1.15;;;;;;;20.38;51.69;92663.00;5147064;27;20030;-73
2022/09/18 00:04:47;;;;;;;3.40;0.90;;;;;;;20.44;51.73;92693.84;5146816;27;20027;-73
2022/09/18 00:07:12;;;;;;;9.02;1.40;;;;;;;20.43;51.64;92693.09;5146627;27;20098;-73
2022/09/18 00:09:38;;;;;;;3.83;1.10;;;;;;;20.48;51.25;92694.59;5146719;27;20058;-74
2022/09/18 00:12:03;;;;;;;5.75;1.30;;;;;;;20.42;52.28;92675.31;5146761;27;20015;-75
2022/09/18 00:14:29;;;;;;;2.88;1.40;;;;;;;19.63;58.37;92703.06;5146813;27;20274;-74
2022/09/18 00:16:55;;;;;;;2.35;1.45;;;;;;;18.47;61.79;92725.63;5128529;27;20023;-73
2022/09/18 00:19:20;;;;;;;3.25;1.95;;;;;;;17.40;65.83;92753.41;5146787;27;20023;-73
2022/09/18 00:21:49;;;;;;;5.95;1.33;;;;;;;16.63;68.06;92772.38;5146659;27;20100;-75
2022/09/18 00:24:16;;;;;;;1.70;0.80;;;;;;;15.82;69.08;92801.81;5146396;27;20022;-74
2022/09/18 00:26:42;;;;;;;1.38;0.93;;;;;;;15.35;71.38;92792.53;5146573;27;20030;-74
2022/09/18 00:29:10;;;;;;;3.00;0.90;;;;;;;14.85;72.29;92829.53;5146305;27;20030;-73
2022/09/18 00:31:36;;;;;;;1.48;0.75;;;;;;;14.28;74.32;92840.25;5146027;27;20023;-73
2022/09/18 00:34:09;;;;;;;1.60;0.93;;;;;;;13.94;75.60;92847.38;5146477;27;20263;-73
2022/09/18 00:36:37;;;;;;;3.58;0.95;;;;;;;13.73;76.31;92859.28;5127932;27;20027;-73
2022/09/18 00:39:02;;;;;;;2.85;1.00;;;;;;;13.57;76.77;92856.69;5146136;27;20314;-73
2022/09/18 00:41:31;;;;;;;1.73;0.95;;;;;;;13.36;76.86;92846.38;5146079;27;20019;-73
2022/09/18 00:44:33;;;;;;;1.02;0.57;;;;;;;13.11;76.23;92858.47;5146432;27;20251;-73
2022/09/18 00:47:15;;;;;;;3.40;0.65;;;;;;;12.85;75.00;92871.38;5146140;27;20094;-73
2022/09/18 00:49:53;;;;;;;1.73;0.43;;;;;;;12.67;75.41;92875.56;5146016;27;20019;-73
2022/09/18 00:52:23;;;;;;;1.13;0.63;;;;;;;12.54;75.71;92887.53;5145953;27;20347;-73
2022/09/18 00:54:53;;;;;;;1.85;0.47;;;;;;;12.44;76.35;92883.50;5145807;27;20025;-73
2022/09/18 00:57:25;;;;;;;1.98;0.73;;;;;;;12.33;77.25;92895.81;5145884;27;20011;-73
2022/09/18 00:59:52;;;;;;;2.90;0.60;;;;;;;12.19;76.15;92905.06;5145709;27;20019;-73
2022/09/18 01:02:18;;;;;;;1.40;0.80;;;;;;;12.10;75.67;92904.47;5145632;27;20021;-73
2022/09/18 01:04:43;;;;;;;1.20;0.57;;;;;;;12.00;74.50;92923.66;5145922;27;20035;-74
2022/09/18 01:07:28;;;;;;;0.68;0.40;;;;;;;11.87;75.28;92928.28;5145620;27;20221;-73
2022/09/18 01:10:24;;;;;;;3.33;0.38;;;;;;;11.59;76.32;92957.69;5145581;27;20078;-73
2022/09/18 01:12:55;;;;;;;1.13;0.47;;;;;;;11.23;78.30;92962.03;5145815;27;20027;-73
2022/09/18 01:15:30;;;;;;;1.33;0.50;;;;;;;11.15;78.49;92986.97;5145527;27;20022;-74
2022/09/18 01:17:58;;;;;;;0.68;0.57;;;;;;;10.92;80.07;92978.69;5145624;27;20313;-74
2022/09/18 01:20:27;;;;;;;0.50;0.40;;;;;;;10.73;81.72;92982.69;5145919;27;20098;-73
2022/09/18 01:23:20;;;;;;;0.82;0.57;;;;;;;10.52;83.24;92990.84;5145404;27;20022;-74
2022/09/18 01:26:00;;;;;;;0.80;0.60;;;;;;;10.36;83.77;92988.03;5145592;27;20031;-72
2022/09/18 01:28:51;;;;;;;1.20;0.55;;;;;;;10.29;84.88;93013.63;5145417;27;20238;-73
2022/09/18 01:31:27;;;;;;;0.85;0.60;;;;;;;10.22;84.74;93006.97;5145070;27;20031;-73
2022/09/18 01:34:39;;;;;;;3.17;0.50;;;;;;;10.25;85.33;93029.50;5145595;27;20011;-73
2022/09/18 01:37:14;;;;;;;1.63;0.75;;;;;;;10.16;83.43;93031.50;5136545;27;20319;-73
2022/09/18 01:39:49;;;;;;;0.73;0.60;;;;;;;10.10;84.92;93025.59;5144921;27;20043;-73
2022/09/18 01:42:17;;;;;;;0.52;0.45;;;;;;;10.09;83.31;93055.97;5145136;27;20012;-73
2022/09/18 01:44:44;;;;;;;0.43;0.43;;;;;;;10.10;82.80;93035.47;5145088;27;20225;-73
2022/09/18 01:47:13;;;;;;;0.77;0.50;;;;;;;9.97;83.75;93069.25;5144743;27;20034;-72
2022/09/18 01:49:44;;;;;;;0.40;0.40;;;;;;;9.88;81.94;93065.91;5144896;27;20168;-73
2022/09/18 01:52:29;;;;;;;0.55;0.45;;;;;;;9.82;82.13;93068.00;5144739;27;20023;-74
2022/09/18 01:54:58;;;;;;;0.90;0.40;;;;;;;9.73;81.95;93075.25;5145018;27;20022;-73
2022/09/18 01:57:33;;;;;;;1.17;0.50;;;;;;;9.56;84.18;93094.81;5144983;27;20073;-73
2022/09/18 02:00:07;;;;;;;0.43;0.32;;;;;;;9.38;84.80;93079.00;5144544;27;20027;-73
2022/09/18 02:02:50;;;;;;;0.90;0.40;;;;;;;9.20;85.52;93090.84;5144596;27;20023;-72
2022/09/18 02:05:30;;;;;;;1.52;0.40;;;;;;;8.98;86.97;93110.50;5144422;27;20322;-71
2022/09/18 02:08:03;;;;;;;3.00;0.57;;;;;;;8.87;87.03;93114.63;5144511;27;20019;-71
2022/09/18 02:10:31;;;;;;;1.10;0.60;;;;;;;8.79;85.22;93119.66;5144553;27;20035;-70
2022/09/18 02:13:00;;;;;;;0.30;0.30;;;;;;;8.81;84.15;93137.94;5144347;27;20259;-72
2022/09/18 02:15:31;;;;;;;0.30;0.30;;;;;;;8.81;83.31;93137.94;5144336;27;20054;-72
2022/09/18 02:18:00;;;;;;;0.50;0.40;;;;;;;8.73;85.05;93128.91;5144489;27;20031;-72
2022/09/18 02:20:29;;;;;;;4.50;1.85;;;;;;;8.54;84.31;93123.97;5143761;27;20317;-72
2022/09/18 02:22:58;;;;;;;0.85;0.52;;;;;;;8.55;86.35;93133.50;5144111;27;20077;-72
2022/09/18 02:25:31;;;;;;;0.90;0.63;;;;;;;8.54;85.19;93161.16;5144230;27;20027;-72
2022/09/18 02:27:58;;;;;;;0.98;0.70;;;;;;;8.42;85.11;93190.22;5144142;27;20030;-72
2022/09/18 02:30:24;;;;;;;0.73;0.50;;;;;;;8.40;85.14;93182.53;5144074;27;20019;-72
2022/09/18 02:32:55;;;;;;;2.10;1.05;;;;;;;8.42;85.07;93192.88;5144095;27;20049;-72
2022/09/18 02:35:24;;;;;;;1.65;0.60;;;;;;;8.39;84.30;93201.47;5143828;27;20317;-72
2022/09/18 02:37:55;;;;;;;0.65;0.60;;;;;;;8.25;85.03;93206.94;5143796;27;20034;-73
2022/09/18 02:40:25;;;;;;;1.00;0.50;;;;;;;8.26;85.04;93221.75;5143947;27;20026;-72
2022/09/18 02:43:19;;;;;;;2.55;0.80;;;;;;;8.24;85.48;93224.75;5143852;27;20213;-72
2022/09/18 02:46:06;;;;;;;0.95;0.70;;;;;;;8.22;84.92;93224.28;5143809;27;20228;-72
2022/09/18 02:48:50;;;;;;;0.55;0.55;;;;;;;8.25;85.38;93230.84;5143737;27;20320;-73
2022/09/18 02:51:35;;;;;;;3.15;0.70;;;;;;;8.26;86.14;93236.94;5143597;27;20038;-72
2022/09/18 02:54:01;;;;;;;1.75;0.75;;;;;;;8.30;86.28;93243.16;5143626;27;20023;-72
2022/09/18 02:56:48;;;;;;;7.32;0.90;;;;;;;8.30;87.15;93224.59;5143906;27;20030;-72
2022/09/18 02:59:19;;;;;;;1.10;0.60;;;;;;;8.32;86.38;93238.31;5143803;27;20022;-72
2022/09/18 03:01:46;;;;;;;2.50;0.77;;;;;;;8.31;86.37;93242.88;5143862;27;20198;-72
2022/09/18 03:04:14;;;;;;;1.00;0.70;;;;;;;8.31;85.47;93253.47;5143504;27;20034;-72
2022/09/18 03:06:40;;;;;;;1.95;0.60;;;;;;;8.38;86.62;93247.69;5143787;27;20352;-72
2022/09/18 03:09:06;;;;;;;0.73;0.65;;;;;;;8.50;84.78;93255.06;5143376;28;20046;-72
2022/09/18 03:11:31;;;;;;;0.85;0.60;;;;;;;8.51;82.73;93257.41;5143301;27;20290;-72
2022/09/18 03:13:57;;;;;;;1.35;0.60;;;;;;;8.42;81.04;93269.91;5143787;28;20023;-74
2022/09/18 03:16:22;;;;;;;1.40;0.95;;;;;;;8.29;80.92;93271.59;5143693;28;20031;-74
2022/09/18 03:18:48;;;;;;;1.40;1.00;;;;;;;8.20;81.12;93262.84;5143325;28;20065;-73
2022/09/18 03:21:13;;;;;;;2.05;1.08;;;;;;;8.16;80.43;93269.88;5143362;28;20038;-72
2022/09/18 03:23:39;;;;;;;1.83;1.00;;;;;;;8.13;80.65;93278.47;5143538;28;20030;-73
2022/09/18 03:26:05;;;;;;;1.52;0.88;;;;;;;8.10;80.93;93273.75;5143352;28;20023;-74
2022/09/18 03:28:31;;;;;;;1.00;0.77;;;;;;;8.07;80.42;93280.47;5143384;28;20385;-72
2022/09/18 03:30:56;;;;;;;1.35;1.00;;;;;;;8.01;81.44;93276.41;5143992;27;20019;-72
2022/09/18 03:33:21;;;;;;;3.85;0.85;;;;;;;8.00;80.36;93290.78;5147417;27;20332;-72
2022/09/18 03:35:47;;;;;;;1.25;0.95;;;;;;;7.99;81.65;93295.31;5147387;27;20031;-72
2022/09/18 03:38:13;;;;;;;1.67;1.00;;;;;;;7.97;81.40;93294.81;5147526;27;20023;-72
2022/09/18 03:40:38;;;;;;;1.73;1.10;;;;;;;8.01;83.07;93306.38;5147332;27;20019;-73
2022/09/18 03:43:04;;;;;;;1.90;1.08;;;;;;;8.06;81.98;93300.16;5147274;27;20022;-73
2022/09/18 03:45:29;;;;;;;1.63;1.13;;;;;;;8.08;82.86;93287.38;5129180;27;20094;-73
2022/09/18 03:47:55;;;;;;;1.83;0.90;;;;;;;8.07;81.26;93299.06;5147215;27;20023;-73
2022/09/18 03:50:20;;;;;;;2.13;1.10;;;;;;;8.02;80.96;93292.03;5147063;27;20027;-73
2022/09/18 03:52:47;;;;;;;1.35;0.80;;;;;;;8.09;81.23;93298.75;5147238;27;20073;-73
2022/09/18 03:55:12;;;;;;;3.33;1.10;;;;;;;8.02;80.93;93305.31;5147179;27;20049;-73
2022/09/18 03:57:38;;;;;;;1.83;1.00;;;;;;;7.98;80.77;93316.88;5147125;27;20325;-73
2022/09/18 04:00:04;;;;;;;1.90;1.30;;;;;;;7.98;81.21;93311.56;5146799;27;20121;-73
2022/09/18 04:02:30;;;;;;;1.52;1.00;;;;;;;7.92;80.96;93342.75;5147153;27;20074;-73
2022/09/18 04:04:55;;;;;;;1.98;1.40;;;;;;;7.92;81.59;93331.38;5147128;27;20030;-73
2022/09/18 04:07:21;;;;;;;1.70;1.10;;;;;;;7.92;81.09;93337.44;5146888;27;20060;-73
2022/09/18 04:09:46;;;;;;;1.55;0.88;;;;;;;7.90;81.12;93336.19;5146733;27;20341;-73
2022/09/18 04:12:12;;;;;;;1.23;0.80;;;;;;;7.88;81.24;93341.03;5146869;27;20031;-73
2022/09/18 04:14:37;;;;;;;1.95;1.10;;;;;;;7.87;80.96;93344.75;5146894;27;20068;-72
2022/09/18 04:17:03;;;;;;;1.20;0.85;;;;;;;7.90;79.87;93360.84;5146936;27;20085;-73
2022/09/18 04:19:28;;;;;;;1.73;1.20;;;;;;;7.82;80.44;93375.66;5147040;27;20090;-73
2022/09/18 04:21:54;;;;;;;2.80;1.33;;;;;;;7.84;80.55;93376.13;5146612;27;20038;-73
2022/09/18 04:24:19;;;;;;;3.25;1.27;;;;;;;7.78;80.55;93380.00;5146463;27;20031;-73
2022/09/18 04:26:46;;;;;;;1.40;0.90;;;;;;;7.81;81.41;93368.75;5146686;27;20019;-73
2022/09/18 04:29:11;;;;;;;1.65;1.17;;;;;;;7.80;81.01;93377.84;5146482;27;20023;-73
2022/09/18 04:31:37;;;;;;;2.22;1.60;;;;;;;7.74;81.50;93379.06;5146409;27;20038;-73
2022/09/18 04:34:02;;;;;;;1.88;1.30;;;;;;;7.75;81.59;93390.44;5146460;27;20094;-73
2022/09/18 04:36:28;;;;;;;2.20;1.20;;;;;;;7.79;82.56;93388.75;5146542;27;20023;-73
2022/09/18 04:38:53;;;;;;;1.73;1.30;;;;;;;7.71;82.51;93397.44;5146296;27;20046;-73
2022/09/18 04:41:18;;;;;;;2.20;1.27;;;;;;;7.75;82.31;93407.13;5146497;27;20372;-73
2022/09/18 04:43:44;;;;;;;6.93;1.88;;;;;;;7.67;82.83;93405.22;5145725;27;20124;-73
2022/09/18 04:46:09;;;;;;;1.95;1.48;;;;;;;7.67;83.82;93402.56;5146166;27;20026;-74
2022/09/18 04:48:35;;;;;;;1.75;1.45;;;;;;;7.71;83.56;93403.53;5146133;27;20094;-73
2022/09/18 04:51:00;;;;;;;3.15;1.90;;;;;;;7.72;84.57;93414.94;5146232;27;20040;-73
2022/09/18 04:53:27;;;;;;;2.33;1.55;;;;;;;7.77;84.86;93418.22;5146012;27;20023;-73
2022/09/18 04:55:52;;;;;;;2.72;1.75;;;;;;;7.85;84.58;93422.00;5146022;27;20042;-73
2022/09/18 04:58:19;;;;;;;1.80;1.40;;;;;;;7.84;85.24;93431.06;5146065;27;20015;-73
2022/09/18 05:00:49;;;;;;;4.03;1.67;;;;;;;7.69;85.06;93436.75;5146005;27;20015;-73
2022/09/18 05:03:14;;;;;;;2.13;1.40;;;;;;;7.70;85.51;93441.00;5145964;27;20022;-73
2022/09/18 05:05:40;;;;;;;3.85;1.42;;;;;;;7.67;85.56;93449.53;5145938;27;20221;-73
2022/09/18 05:08:05;;;;;;;2.28;1.48;;;;;;;7.69;85.89;93458.75;5145597;27;20027;-73
2022/09/18 05:10:31;;;;;;;2.55;1.40;;;;;;;7.74;86.06;93468.47;5145692;27;20050;-73
2022/09/18 05:12:56;;;;;;;2.67;1.60;;;;;;;7.78;85.77;93467.56;5145830;27;20050;-73
2022/09/18 05:15:21;;;;;;;1.50;1.15;;;;;;;7.87;85.97;93477.44;5145767;27;20019;-73
2022/09/18 05:17:47;;;;;;;2.80;1.30;;;;;;;7.88;84.71;93492.28;5145749;27;20308;-73
2022/09/18 05:20:13;;;;;;;2.08;1.40;;;;;;;7.87;82.49;93480.09;5145355;27;20022;-75
2022/09/18 05:22:43;;;;;;;1.05;0.88;;;;;;;7.88;81.24;93484.31;5145511;27;20100;-76
2022/09/18 05:25:09;;;;;;;1.33;1.00;;;;;;;7.95;79.55;93484.66;5145527;27;20129;-73
2022/09/18 05:27:34;;;;;;;0.98;0.63;;;;;;;7.92;77.72;93480.75;5145166;27;20321;-73
2022/09/18 05:30:00;;;;;;;1.50;0.88;;;;;;;7.99;77.60;93493.56;5145594;27;20046;-73
2022/09/18 05:32:25;;;;;;;1.48;0.77;;;;;;;8.02;78.17;93491.09;5145242;27;20011;-73
2022/09/18 05:34:50;;;;;;;1.50;0.90;;;;;;;7.93;75.71;93494.78;5144998;27;20019;-73
2022/09/18 05:37:17;;;;;;;2.10;1.02;;;;;;;7.98;76.79;93494.66;5145014;27;20039;-73
2022/09/18 05:39:42;;;;;;;3.85;1.00;;;;;;;7.95;76.90;93511.97;5144883;27;20321;-73
2022/09/18 05:42:08;;;;;;;1.58;1.00;;;;;;;7.93;74.95;93505.41;5144995;27;20026;-73
2022/09/18 05:44:34;;;;;;;2.20;1.00;;;;;;;8.06;76.75;93520.47;5145134;27;20116;-73
2022/09/18 05:47:00;;;;;;;1.92;0.90;;;;;;;8.10;75.77;93513.47;5145104;27;20329;-73
2022/09/18 05:49:25;;;;;;;1.60;1.00;;;;;;;8.17;74.92;93505.06;5144952;27;20060;-73
2022/09/18 05:51:51;;;;;;;1.98;1.17;;;;;;;8.26;76.11;93515.69;5144951;27;20035;-73
2022/09/18 05:54:16;;;;;;;2.00;1.13;;;;;;;8.26;73.73;93523.66;5144103;27;20028;-73
2022/09/18 05:56:42;;;;;;;1.65;0.98;;;;;;;8.17;72.95;93505.81;5144642;27;20019;-75
2022/09/18 05:59:07;;;;;;;3.25;1.33;;;;;;;8.19;73.25;93511.63;5144481;27;20023;-73
2022/09/18 06:01:33;;;;;;;1.77;1.00;;;;;;;8.20;73.35;93526.47;5144845;27;20037;-73
2022/09/18 06:03:58;;;;;;;3.08;0.98;;;;;;;8.15;73.09;93518.63;5144794;27;20094;-74
2022/09/18 06:06:30;;;;;;;3.00;1.30;;;;;;;8.21;72.85;93530.69;5144301;27;20014;-78
2022/09/18 06:08:55;;;;;;;2.50;1.23;;;;;;;8.21;71.42;93530.69;5144549;27;20039;-74
2022/09/18 06:11:20;;;;;;;2.97;1.30;;;;;;;8.22;72.88;93526.13;5144402;27;20054;-74
2022/09/18 06:13:51;;;;;;;1.77;0.98;;;;;;;8.24;72.04;93535.38;5144467;27;20202;-73
2022/09/18 06:16:18;;;;;;;5.00;1.08;;;;;;;8.12;72.59;93537.84;5144405;27;20054;-73
2022/09/18 06:18:43;;;;;;;1.30;0.80;;;;;;;8.24;72.78;93534.59;5144288;27;20023;-73
2022/09/18 06:21:09;;;;;;;1.95;1.33;;;;;;;8.28;73.00;93545.38;5144435;27;20023;-73
2022/09/18 06:23:35;;;;;;;3.58;1.20;;;;;;;8.27;72.52;93559.75;5144256;27;20077;-73
2022/09/18 06:26:05;;;;;;;3.85;1.38;;;;;;;8.31;72.95;93558.84;5144390;27;20023;-74
2022/09/18 06:28:31;;;;;;;1.40;1.00;;;;;;;8.40;73.10;93564.19;5144324;27;20022;-74
2022/09/18 06:30:57;;;;;;;1.60;1.00;;;;;;;8.52;72.02;93568.94;5144339;27;20023;-74
2022/09/18 06:33:23;;;;;;;4.43;1.15;;;;;;;8.56;72.36;93570.69;5144100;27;20321;-72
2022/09/18 06:35:48;;;;;;;1.55;0.98;;;;;;;8.55;71.91;93582.41;5144035;27;20023;-73
2022/09/18 06:38:15;;;;;;;1.65;1.00;;;;;;;8.63;71.37;93600.25;5144002;27;20309;-74
2022/09/18 06:40:48;;;;;;;3.05;1.08;;;;;;;8.65;70.74;93581.38;5144252;27;20019;-73
2022/09/18 06:43:14;;;;;;;1.95;1.13;;;;;;;8.60;70.85;93584.13;5144024;27;20222;-74
2022/09/18 06:45:39;;;;;;;3.15;1.00;;;;;;;8.50;69.23;93590.50;5143907;27;20022;-73
2022/09/18 06:48:06;;;;;;;3.33;0.90;;;;;;;8.46;71.74;93600.16;5143947;27;20217;-74
2022/09/18 06:50:31;;;;;;;2.35;1.00;;;;;;;8.47;71.05;93603.59;5143983;27;20031;-73
2022/09/18 06:53:04;;;;;;;2.22;1.08;;;;;;;8.49;69.88;93607.53;5143996;27;20031;-72
2022/09/18 06:55:30;;;;;;;2.08;1.17;;;;;;;8.65;72.39;93607.94;5143903;27;20303;-72
2022/09/18 06:57:57;;;;;;;3.22;1.08;;;;;;;8.70;71.05;93607.78;5143863;27;20054;-72
2022/09/18 07:00:23;;;;;;;1.65;0.90;;;;;;;8.83;72.14;93614.06;5143652;27;20074;-72
2022/09/18 07:02:59;;;;;;;1.70;1.02;;;;;;;8.98;71.23;93615.53;5143723;27;20431;-73
2022/09/18 07:05:27;;;;;;;5.22;1.00;;;;;;;9.01;71.04;93604.28;5127744;27;20030;-73
2022/09/18 07:07:52;;;;;;;1.65;1.10;;;;;;;9.01;70.13;93612.25;5150370;27;20034;-71
2022/09/18 07:10:18;;;;;;;1.52;0.80;;;;;;;9.06;70.29;93625.41;5150519;27;20019;-72
2022/09/18 07:12:47;;;;;;;1.95;1.15;;;;;;;9.01;69.54;93621.00;5150545;27;20042;-72
2022/09/18 07:15:17;;;;;;;1.27;0.82;;;;;;;9.08;69.72;93620.56;5150340;27;20026;-72
2022/09/18 07:17:43;;;;;;;2.58;1.00;;;;;;;9.16;69.64;93621.66;5150552;27;20019;-72
2022/09/18 07:20:10;;;;;;;2.08;1.02;;;;;;;9.27;70.30;93611.53;5132372;27;20053;-72
2022/09/18 07:22:36;;;;;;;1.58;0.70;;;;;;;9.32;69.67;93622.81;5150325;27;20212;-73
2022/09/18 07:25:02;;;;;;;2.97;0.93;;;;;;;9.30;68.85;93622.34;5150558;27;20030;-73
2022/09/18 07:27:28;;;;;;;1.17;0.93;;;;;;;9.42;68.01;93617.22;5150596;27;20101;-74
2022/09/18 07:29:55;;;;;;;2.25;0.88;;;;;;;9.49;68.07;93623.94;5150496;27;20026;-73
2022/09/18 07:32:22;;;;;;;0.90;0.65;;;;;;;9.69;68.22;93620.66;5150484;27;20034;-73
2022/09/18 07:34:47;;;;;;;1.05;0.70;;;;;;;9.78;65.90;93620.66;5150073;27;20023;-73
2022/09/18 07:37:13;;;;;;;3.63;0.95;;;;;;;9.83;65.53;93618.63;5150158;27;20038;-73
2022/09/18 07:39:38;;;;;;;1.30;0.88;;;;;;;9.88;65.33;93627.56;5150325;27;20064;-73
2022/09/18 07:42:04;;;;;;;4.57;0.90;;;;;;;9.95;65.71;93635.84;5131788;27;20299;-72
2022/09/18 07:44:33;;;;;;;1.13;0.77;;;;;;;10.14;65.24;93632.88;5150322;27;20023;-82
2022/09/18 07:46:58;;;;;;;1.90;0.80;;;;;;;10.22;64.57;93635.50;5150410;27;20046;-84
2022/09/18 07:49:24;;;;;;;1.83;1.00;;;;;;;10.34;62.42;93626.09;5150448;27;20027;-80
2022/09/18 07:51:49;;;;;;;1.98;0.95;;;;;;;10.39;63.72;93629.41;5150566;27;20038;-79
2022/09/18 07:54:15;;;;;;;2.47;0.70;;;;;;;10.33;64.08;93625.34;5150240;27;20023;-83
2022/09/18 07:56:43;;;;;;;1.63;0.90;;;;;;;10.39;64.79;93628.63;5149898;27;20023;-81
2022/09/18 07:59:09;;;;;;;3.80;0.95;;;;;;;10.15;62.04;93637.09;5151701;27;20023;-81
2022/09/18 08:01:34;;;;;;;1.92;0.75;;;;;;;10.19;63.41;93638.78;5149991;27;20168;-80
2022/09/18 08:04:00;;;;;;;1.48;0.82;;;;;;;10.13;64.31;93658.69;5150534;27;20019;-80
2022/09/18 08:06:27;;;;;;;3.30;1.35;;;;;;;10.15;63.71;93647.75;5131546;27;20058;-81
2022/09/18 08:08:52;;;;;;;2.00;0.95;;;;;;;10.25;62.81;93656.19;5149599;27;20043;-80
2022/09/18 08:11:18;;;;;;;2.22;0.68;;;;;;;10.08;63.23;93658.88;5149766;27;20057;-79
2022/09/18 08:13:43;;;;;;;1.67;0.80;;;;;;;10.18;63.83;93665.75;5150167;27;20019;-80
2022/09/18 08:16:08;;;;;;;1.92;0.90;;;;;;;10.12;63.23;93672.34;5149996;27;20042;-81
2022/09/18 08:18:37;;;;;;;2.67;1.00;;;;;;;10.16;63.66;93662.63;5145631;27;20213;-82
2022/09/18 08:21:03;;;;;;;3.67;1.08;;;;;;;10.14;63.52;93670.16;5146400;27;20030;-79
2022/09/18 08:23:28;;;;;;;6.78;1.10;;;;;;;10.19;63.46;93662.75;5146863;27;20023;-77
2022/09/18 08:25:54;;;;;;;3.08;1.20;;;;;;;10.25;64.71;93653.50;5146275;27;20019;-77
2022/09/18 08:28:19;;;;;;;1.63;0.88;;;;;;;10.37;64.17;93652.13;5128088;27;20034;-81
2022/09/18 08:30:52;;;;;;;1.33;0.93;;;;;;;10.48;62.90;93657.91;5146496;27;20019;-81
2022/09/18 08:33:18;;;;;;;1.98;1.13;;;;;;;10.57;62.83;93648.03;5146361;27;20254;-81
2022/09/18 08:35:43;;;;;;;1.73;0.93;;;;;;;10.70;62.75;93643.59;5146510;27;20039;-81
2022/09/18 08:38:10;;;;;;;2.47;1.17;;;;;;;10.88;63.49;93657.66;5146430;27;20019;-80
2022/09/18 08:41:01;;;;;;;2.05;0.90;;;;;;;11.03;61.65;93652.56;5146366;27;20015;-81
2022/09/18 08:43:26;;;;;;;0.90;0.60;;;;;;;10.96;60.89;93640.84;5146175;27;20305;-81
2022/09/18 08:46:01;;;;;;;2.67;0.82;;;;;;;10.96;60.19;93654.94;5127702;27;20043;-82
2022/09/18 08:48:36;;;;;;;3.50;0.95;;;;;;;11.15;60.52;93661.75;5128090;27;20019;-82
2022/09/18 08:51:33;;;;;;;1.25;0.80;;;;;;;11.25;61.13;93653.41;5145752;27;20404;-82
2022/09/18 08:54:21;;;;;;;1.50;0.90;;;;;;;11.04;58.65;93642.69;5146149;27;20023;-82
2022/09/18 08:56:50;;;;;;;1.58;0.77;;;;;;;11.14;60.29;93628.19;5145934;27;20047;-82
2022/09/18 08:59:36;;;;;;;1.73;0.88;;;;;;;11.31;59.67;93640.66;5127551;27;20023;-82
2022/09/18 09:02:19;;;;;;;0.60;0.50;;;;;;;11.37;56.77;93650.03;5145714;27;20007;-82
2022/09/18 09:04:45;;;;;;;1.45;0.80;;;;;;;11.48;57.18;93661.94;5145814;27;20029;-82
2022/09/18 09:07:33;;;;;;;1.42;0.90;;;;;;;11.47;57.20;93660.34;5145559;27;20082;-81
2022/09/18 09:10:07;;;;;;;1.48;0.77;;;;;;;11.30;57.95;93703.91;5146136;27;20046;-81
2022/09/18 09:12:42;;;;;;;1.73;0.82;;;;;;;11.11;58.87;93647.50;5145328;27;20064;-81
2022/09/18 09:15:19;;;;;;;1.35;0.75;;;;;;;11.21;59.62;93660.47;5145569;27;20320;-81
2022/09/18 09:18:03;;;;;;;2.47;1.20;;;;;;;11.25;60.31;93669.41;5145522;27;20038;-83
2022/09/18 09:20:45;;;;;;;1.20;0.60;;;;;;;11.22;59.94;93686.84;5127291;27;20023;-82
2022/09/18 09:23:20;;;;;;;2.10;0.98;;;;;;;11.03;58.25;93711.25;5145969;27;20046;-89
2022/09/18 09:26:04;;;;;;;1.05;0.68;;;;;;;10.93;58.60;93706.25;5127799;27;20050;-88
2022/09/18 09:28:51;;;;;;;1.80;1.00;;;;;;;10.91;59.56;93713.78;5126611;27;20015;-87
2022/09/18 09:31:22;;;;;;;1.33;0.82;;;;;;;10.98;60.36;93708.75;5145801;27;20022;-88
2022/09/18 09:33:53;;;;;;;1.40;1.08;;;;;;;11.09;59.29;93717.16;5145888;27;20027;-87
2022/09/18 09:36:24;;;;;;;2.00;1.00;;;;;;;11.11;59.36;93717.63;5145595;27;20114;-88
2022/09/18 09:39:12;;;;;;;1.38;0.90;;;;;;;10.94;59.82;93733.69;5161164;27;20135;-89
2022/09/18 09:42:02;;;;;;;1.15;0.77;;;;;;;10.93;59.46;93748.13;5146199;27;20027;-85
2022/09/18 09:44:38;;;;;;;1.52;0.82;;;;;;;10.76;59.95;93743.63;5144374;27;20033;-88
2022/09/18 09:47:23;;;;;;;4.70;0.98;;;;;;;10.86;60.19;93767.28;5144666;27;20022;-83
2022/09/18 09:50:17;;;;;;;1.58;0.93;;;;;;;10.80;58.30;93749.88;5145011;27;20031;-83
2022/09/18 09:52:48;;;;;;;2.33;1.17;;;;;;;10.71;57.15;93749.91;5144760;27;20027;-82
2022/09/18 09:55:14;;;;;;;2.90;1.50;;;;;;;10.82;56.92;93747.69;5145068;27;20049;-86
2022/09/18 09:58:07;;;;;;;2.40;1.58;;;;;;;10.88;56.35;93767.75;5144906;27;20035;-85
2022/09/18 10:00:47;;;;;;;2.00;1.60;;;;;;;10.92;55.86;93755.34;5145461;27;20015;-86
2022/09/18 10:03:34;;;;;;;2.50;1.80;;;;;;;11.10;57.02;93745.41;5144662;27;20022;-85
2022/09/18 10:06:42;;;;;;;3.25;1.75;;;;;;;11.22;56.27;93756.19;5144935;27;20086;-86
2022/09/18 10:09:26;;;;;;;2.90;1.83;;;;;;;11.34;55.87;93747.53;5061307;28;20083;-86
2022/09/18 10:12:26;;;;;;;2.45;1.70;;;;;;;11.41;54.77;93745.13;5137370;27;20035;-86
2022/09/18 10:15:12;;;;;;;2.67;1.70;;;;;;;11.42;55.64;93754.72;5140082;27;20034;-82
2022/09/18 10:17:40;;;;;;;2.80;1.83;;;;;;;11.52;56.86;93758.13;5144679;27;20251;-76
2022/09/18 10:20:09;;;;;;;3.05;1.60;;;;;;;11.52;55.50;93758.13;5144264;27;20228;-76
2022/09/18 10:22:37;;;;;;;2.58;1.77;;;;;;;11.48;56.26;93759.88;5144310;27;20023;-76
2022/09/18 10:25:13;;;;;;;7.43;2.30;;;;;;;11.47;55.62;93752.97;5125791;27;20046;-76
2022/09/18 10:27:38;;;;;;;2.55;1.92;;;;;;;11.51;55.21;93764.59;5144091;27;20313;-75
2022/09/18 10:30:12;;;;;;;3.22;2.30;;;;;;;11.52;55.22;93755.44;5144169;27;20023;-74
2022/09/18 10:32:42;;;;;;;3.05;1.65;;;;;;;11.66;56.19;93769.38;5143963;27;20039;-76
2022/09/18 10:35:29;;;;;;;3.10;2.22;;;;;;;11.72;57.49;93768.06;5144001;27;20030;-76
2022/09/18 10:37:56;;;;;;;3.55;2.50;;;;;;;11.69;57.24;93752.72;5143939;27;20018;-75
2022/09/18 10:40:38;;;;;;;8.52;2.85;;;;;;;11.78;56.55;93772.13;5143584;27;20292;-75
2022/09/18 10:43:05;;;;;;;;;;;;;;;11.76;55.05;93763.66;5144364;27;20019;-75
2022/09/18 10:45:40;;;;;;;10.77;3.53;;;;;;;11.66;55.79;93764.03;5143572;27;19904;-76
2022/09/18 10:48:06;;;;;;;5.10;3.03;;;;;;;11.71;56.63;93771.88;5143923;27;20034;-76
2022/09/18 10:50:32;;;;;;;6.25;3.38;;;;;;;11.78;56.58;93787.38;5144018;27;20022;-75
2022/09/18 10:53:20;;;;;;;7.80;2.95;;;;;;;11.63;55.31;93804.72;5125577;28;20038;-76
2022/09/18 10:55:49;;;;;;;5.50;3.53;;;;;;;11.55;55.99;93776.19;5143660;27;20317;-76
2022/09/18 10:58:16;;;;;;;10.18;3.42;;;;;;;11.58;55.74;93783.53;5143719;27;20372;-76
2022/09/18 11:00:50;;;;;;;11.05;6.10;;;;;;;11.58;56.53;93788.88;5143774;27;20023;-77
2022/09/18 11:03:16;;;;;;;9.82;5.72;;;;;;;11.68;56.21;93787.75;5143653;27;20027;-76
2022/09/18 11:05:51;;;;;;;11.93;7.30;;;;;;;11.81;56.74;93784.06;5143880;28;20023;-75
2022/09/18 11:08:23;;;;;;;14.38;6.68;;;;;;;11.91;56.07;93790.97;5143744;28;20294;-76
2022/09/18 11:10:52;;;;;;;9.32;5.22;;;;;;;11.76;55.38;93786.91;5143914;28;20243;-76
2022/09/18 11:13:26;;;;;;;6.47;4.13;;;;;;;11.81;55.07;93798.19;5143627;28;20023;-74
2022/09/18 11:16:01;;;;;;;4.45;3.40;;;;;;;11.65;55.74;93802.53;5143509;28;20026;-77
2022/09/18 11:18:29;;;;;;;6.45;3.28;;;;;;;11.68;55.63;93785.06;5144122;28;20046;-77
2022/09/18 11:20:59;;;;;;;4.03;3.08;;;;;;;11.64;55.11;93782.25;5143782;28;20313;-77
2022/09/18 11:23:30;;;;;;;4.20;3.05;;;;;;;11.84;54.86;93784.22;5143523;28;20037;-75
2022/09/18 11:26:28;;;;;;;4.13;3.43;;;;;;;12.13;54.82;93785.34;5143629;28;20102;-76
2022/09/18 11:28:58;;;;;;;3.90;2.72;;;;;;;12.19;55.20;93799.28;5127754;27;20035;-79
2022/09/18 11:31:33;;;;;;;3.85;2.70;;;;;;;12.12;54.59;93797.13;5143572;27;20023;-77
2022/09/18 11:33:59;;;;;;;6.30;2.63;;;;;;;11.99;53.94;93801.59;5143793;28;20251;-76
2022/09/18 11:36:30;;;;;;;4.40;2.88;;;;;;;11.93;53.99;93794.09;5143484;27;20049;-76
2022/09/18 11:39:11;;;;;;;3.90;2.88;;;;;;;11.65;55.06;93792.63;5143587;28;20258;-77
2022/09/18 11:41:39;;;;;;;4.68;2.83;;;;;;;11.63;55.41;93796.72;5143256;27;20087;-76
2022/09/18 11:44:11;;;;;;;3.53;2.30;;;;;;;11.72;56.36;93800.13;5143359;27;20086;-75
2022/09/18 11:47:13;;;;;;;3.20;2.15;;;;;;;11.62;55.65;93795.13;5143443;28;20031;-76
2022/09/18 11:49:51;;;;;;;2.92;1.92;;;;;;;11.64;55.80;93795.59;5143171;28;20030;-75
2022/09/18 11:52:19;;;;;;;2.90;1.70;;;;;;;11.62;55.05;93808.47;5144200;27;20035;-75
2022/09/18 11:55:02;;;;;;;4.72;2.05;;;;;;;11.53;55.14;93802.41;5147211;27;20092;-76